sensor_id;sensor_type;location;lat;lon;timestamp;pressure;altitude;pressure_sealevel;temperature;humidity
10474;BME280;5284;50.446;7.904;2024-01-15T00:03:01;97161.09;;;-2.18;100.00
10474;BME280;5284;50.446;7.904;2024-01-15T00:08:04;97151.28;;;-2.14;100.00
10474;BME280;5284;50.446;7.904;2024-01-15T00:13:08;97150.34;;;-2.13;100.00
10474;BME280;5284;50.446;7.904;2024-01-15T00:18:13;97144.88;;;-2.09;100.00
10474;BME280;5284;50.446;7.904;2024-01-15T00:23:16;97137.13;;;-2.10;100.00
10474;BME280;5284;50.446;7.904;2024-01-15T00:28:19;97122.03;;;-2.05;100.00
10474;BME280;5284;50.446;7.904;2024-01-15T00:33:25;97115.88;;;-2.04;100.00
10474;BME280;5284;50.446;7.904;2024-01-15T00:38:28;97122.81;;;-2.03;100.00
10474;BME280;5284;50.446;7.904;2024-01-15T00:43:31;97100.88;;;-2.01;100.00
10474;BME280;5284;50.446;7.904;2024-01-15T00:48:35;97112.84;;;-1.97;100.00
10474;BME280;5284;50.446;7.904;2024-01-15T00:53:38;97089.91;;;-1.92;100.00
10474;BME280;5284;50.446;7.904;2024-01-15T00:58:41;97087.28;;;-1.92;100.00
10474;BME280;5284;50.446;7.904;2024-01-15T01:03:46;97081.88;;;-1.89;100.00
10474;BME280;5284;50.446;7.904;2024-01-15T01:08:50;97074.03;;;-1.89;100.00
10474;BME280;5284;50.446;7.904;2024-01-15T01:13:53;97076.66;;;-1.89;100.00
10474;BME280;5284;50.446;7.904;2024-01-15T01:18:57;97072.22;;;-1.87;100.00
10474;BME280;5284;50.446;7.904;2024-01-15T01:24:01;97067.88;;;-1.88;100.00
10474;BME280;5284;50.446;7.904;2024-01-15T01:29:04;97066.13;;;-1.87;100.00
10474;BME280;5284;50.446;7.904;2024-01-15T01:34:08;97073.88;;;-1.86;100.00
10474;BME280;5284;50.446;7.904;2024-01-15T01:39:11;97067.81;;;-1.86;100.00
10474;BME280;5284;50.446;7.904;2024-01-15T01:44:14;97072.38;;;-1.90;100.00
10474;BME280;5284;50.446;7.904;2024-01-15T01:49:22;97080.88;;;-1.86;100.00
10474;BME280;5284;50.446;7.904;2024-01-15T01:54:25;97078.81;;;-1.95;100.00
10474;BME280;5284;50.446;7.904;2024-01-15T01:59:30;97066.56;;;-1.95;100.00
10474;BME280;5284;50.446;7.904;2024-01-15T02:04:34;97082.91;;;-1.91;100.00
10474;BME280;5284;50.446;7.904;2024-01-15T02:09:39;97075.91;;;-1.91;100.00
10474;BME280;5284;50.446;7.904;2024-01-15T02:14:43;97082.91;;;-1.91;100.00
10474;BME280;5284;50.446;7.904;2024-01-15T02:19:49;97084.28;;;-2.00;100.00
10474;BME280;5284;50.446;7.904;2024-01-15T02:24:54;97082.53;;;-1.99;100.00
10474;BME280;5284;50.446;7.904;2024-01-15T02:29:58;97087.09;;;-2.03;100.00
10474;BME280;5284;50.446;7.904;2024-01-15T02:35:01;97073.78;;;-1.98;100.00
10474;BME280;5284;50.446;7.904;2024-01-15T02:40:07;97081.59;;;-1.98;100.00
10474;BME280;5284;50.446;7.904;2024-01-15T02:45:11;97086.84;;;-1.98;100.00
10474;BME280;5284;50.446;7.904;2024-01-15T02:50:14;97083.19;;;-1.96;100.00
10474;BME280;5284;50.446;7.904;2024-01-15T02:55:19;97086.09;;;-2.00;100.00
10474;BME280;5284;50.446;7.904;2024-01-15T03:00:21;97084.09;;;-1.97;100.00
10474;BME280;5284;50.446;7.904;2024-01-15T03:05:25;97093.81;;;-1.99;100.00
10474;BME280;5284;50.446;7.904;2024-01-15T03:10:29;97104.00;;;-1.94;100.00
10474;BME280;5284;50.446;7.904;2024-01-15T03:15:32;97100.53;;;-1.95;100.00
10474;BME280;5284;50.446;7.904;2024-01-15T03:20:36;97100.63;;;-1.96;100.00
10474;BME280;5284;50.446;7.904;2024-01-15T03:25:40;97087.41;;;-1.93;100.00
10474;BME280;5284;50.446;7.904;2024-01-15T03:30:43;97079.63;;;-1.95;100.00
10474;BME280;5284;50.446;7.904;2024-01-15T03:35:48;97076.94;;;-1.93;100.00
10474;BME280;5284;50.446;7.904;2024-01-15T03:40:52;97082.16;;;-1.93;100.00
10474;BME280;5284;50.446;7.904;2024-01-15T03:45:55;97081.25;;;-1.92;100.00
10474;BME280;5284;50.446;7.904;2024-01-15T03:50:58;97067.06;;;-1.88;100.00
10474;BME280;5284;50.446;7.904;2024-01-15T03:56:03;97073.03;;;-1.86;100.00
10474;BME280;5284;50.446;7.904;2024-01-15T04:01:07;97063.53;;;-1.87;100.00
10474;BME280;5284;50.446;7.904;2024-01-15T04:06:10;97060.06;;;-1.88;100.00
10474;BME280;5284;50.446;7.904;2024-01-15T04:11:15;97050.47;;;-1.87;100.00
10474;BME280;5284;50.446;7.904;2024-01-15T04:16:18;97056.63;;;-1.88;100.00
10474;BME280;5284;50.446;7.904;2024-01-15T04:21:23;97063.53;;;-1.87;100.00
10474;BME280;5284;50.446;7.904;2024-01-15T04:26:27;97066.06;;;-1.86;100.00
10474;BME280;5284;50.446;7.904;2024-01-15T04:31:30;97060.25;;;-1.91;100.00
10474;BME280;5284;50.446;7.904;2024-01-15T04:36:38;97053.16;;;-1.89;100.00
10474;BME280;5284;50.446;7.904;2024-01-15T04:41:44;97047.19;;;-1.91;100.00
10474;BME280;5284;50.446;7.904;2024-01-15T04:46:47;97046.53;;;-1.94;100.00
10474;BME280;5284;50.446;7.904;2024-01-15T04:51:53;97054.19;;;-1.91;100.00
10474;BME280;5284;50.446;7.904;2024-01-15T04:56:58;97051.41;;;-1.88;100.00
10474;BME280;5284;50.446;7.904;2024-01-15T05:02:03;97041.03;;;-1.90;100.00
10474;BME280;5284;50.446;7.904;2024-01-15T05:07:06;97036.00;;;-1.93;100.00
10474;BME280;5284;50.446;7.904;2024-01-15T05:12:11;97030.69;;;-1.91;100.00
10474;BME280;5284;50.446;7.904;2024-01-15T05:17:15;97039.34;;;-1.91;100.00
10474;BME280;5284;50.446;7.904;2024-01-15T05:22:18;97025.47;;;-1.91;100.00
10474;BME280;5284;50.446;7.904;2024-01-15T05:27:24;97027.16;;;-1.90;100.00
10474;BME280;5284;50.446;7.904;2024-01-15T05:32:27;97019.31;;;-1.90;100.00
10474;BME280;5284;50.446;7.904;2024-01-15T05:37:30;97019.88;;;-1.85;100.00
10474;BME280;5284;50.446;7.904;2024-01-15T05:42:35;97019.88;;;-1.85;100.00
10474;BME280;5284;50.446;7.904;2024-01-15T05:47:38;97029.38;;;-1.84;100.00
10474;BME280;5284;50.446;7.904;2024-01-15T05:52:41;97025.84;;;-1.83;100.00
10474;BME280;5284;50.446;7.904;2024-01-15T05:57:46;97029.31;;;-1.83;100.00
10474;BME280;5284;50.446;7.904;2024-01-15T06:02:49;97017.06;;;-1.82;100.00
10474;BME280;5284;50.446;7.904;2024-01-15T06:07:52;97029.00;;;-1.78;100.00
10474;BME280;5284;50.446;7.904;2024-01-15T06:12:58;97028.06;;;-1.77;100.00
10474;BME280;5284;50.446;7.904;2024-01-15T06:18:01;97029.75;;;-1.76;100.00
10474;BME280;5284;50.446;7.904;2024-01-15T06:23:04;97034.78;;;-1.73;100.00
10474;BME280;5284;50.446;7.904;2024-01-15T06:28:08;97032.09;;;-1.72;100.00
10474;BME280;5284;50.446;7.904;2024-01-15T06:33:11;97025.75;;;-1.68;100.00
10474;BME280;5284;50.446;7.904;2024-01-15T06:38:15;97025.84;;;-1.69;100.00
10474;BME280;5284;50.446;7.904;2024-01-15T06:43:19;97018.75;;;-1.67;100.00
10474;BME280;5284;50.446;7.904;2024-01-15T06:48:22;97009.06;;;-1.65;100.00
10474;BME280;5284;50.446;7.904;2024-01-15T06:53:26;97017.91;;;-1.68;100.00
10474;BME280;5284;50.446;7.904;2024-01-15T06:58:32;97016.03;;;-1.66;100.00
10474;BME280;5284;50.446;7.904;2024-01-15T07:03:35;97021.19;;;-1.64;100.00
10474;BME280;5284;50.446;7.904;2024-01-15T07:08:39;97015.78;;;-1.61;100.00
10474;BME280;5284;50.446;7.904;2024-01-15T07:13:44;97012.22;;;-1.60;100.00
10474;BME280;5284;50.446;7.904;2024-01-15T07:18:48;97014.84;;;-1.60;100.00
10474;BME280;5284;50.446;7.904;2024-01-15T07:23:52;97008.38;;;-1.55;100.00
10474;BME280;5284;50.446;7.904;2024-01-15T07:28:56;97013.44;;;-1.52;100.00
10474;BME280;5284;50.446;7.904;2024-01-15T07:34:00;97006.41;;;-1.52;100.00
10474;BME280;5284;50.446;7.904;2024-01-15T07:39:04;97008.56;;;-1.44;100.00
10474;BME280;5284;50.446;7.904;2024-01-15T07:44:09;97002.47;;;-1.45;100.00
10474;BME280;5284;50.446;7.904;2024-01-15T07:49:12;97000.53;;;-1.41;100.00
10474;BME280;5284;50.446;7.904;2024-01-15T07:54:17;96998.84;;;-1.42;100.00
10474;BME280;5284;50.446;7.904;2024-01-15T07:59:21;97001.00;;;-1.35;100.00
10474;BME280;5284;50.446;7.904;2024-01-15T08:04:26;97000.88;;;-1.33;100.00
10474;BME280;5284;50.446;7.904;2024-01-15T08:09:30;96998.06;;;-1.30;100.00
10474;BME280;5284;50.446;7.904;2024-01-15T08:14:34;97000.41;;;-1.26;100.00
10474;BME280;5284;50.446;7.904;2024-01-15T08:19:37;97008.03;;;-1.23;100.00
10474;BME280;5284;50.446;7.904;2024-01-15T08:24:44;97006.84;;;-1.17;100.00
10474;BME280;5284;50.446;7.904;2024-01-15T08:29:49;96999.66;;;-1.01;100.00
10474;BME280;5284;50.446;7.904;2024-01-15T08:34:53;96998.59;;;-0.85;100.00
10474;BME280;5284;50.446;7.904;2024-01-15T08:39:56;96989.63;;;-0.68;100.00
10474;BME280;5284;50.446;7.904;2024-01-15T08:45:01;96987.06;;;-0.56;100.00
10474;BME280;5284;50.446;7.904;2024-01-15T08:50:05;96980.06;;;-0.43;100.00
10474;BME280;5284;50.446;7.904;2024-01-15T08:55:13;96990.56;;;-0.18;100.00
10474;BME280;5284;50.446;7.904;2024-01-15T09:00:18;96994.75;;;0.22;100.00
10474;BME280;5284;50.446;7.904;2024-01-15T09:05:21;96999.84;;;0.48;100.00
10474;BME280;5284;50.446;7.904;2024-01-15T09:10:24;97009.09;;;0.29;100.00
10474;BME280;5284;50.446;7.904;2024-01-15T09:15:29;97002.69;;;0.33;100.00
10474;BME280;5284;50.446;7.904;2024-01-15T09:20:33;97013.53;;;0.28;100.00
10474;BME280;5284;50.446;7.904;2024-01-15T09:25:38;97011.84;;;0.27;100.00
10474;BME280;5284;50.446;7.904;2024-01-15T09:30:42;97011.94;;;0.13;100.00
10474;BME280;5284;50.446;7.904;2024-01-15T09:35:47;97004.38;;;0.34;100.00
10474;BME280;5284;50.446;7.904;2024-01-15T09:40:51;97001.81;;;0.70;100.00
10474;BME280;5284;50.446;7.904;2024-01-15T09:45:58;96993.44;;;1.48;100.00
10474;BME280;5284;50.446;7.904;2024-01-15T09:51:01;97002.53;;;2.00;100.00
10474;BME280;5284;50.446;7.904;2024-01-15T09:56:04;96999.97;;;2.22;100.00
10474;BME280;5284;50.446;7.904;2024-01-15T10:01:09;96990.69;;;1.94;100.00
10474;BME280;5284;50.446;7.904;2024-01-15T10:06:15;96984.03;;;1.56;100.00
10474;BME280;5284;50.446;7.904;2024-01-15T10:11:23;96977.47;;;1.61;100.00
10474;BME280;5284;50.446;7.904;2024-01-15T10:16:28;96971.69;;;1.46;100.00
10474;BME280;5284;50.446;7.904;2024-01-15T10:21:33;96970.16;;;1.20;100.00
10474;BME280;5284;50.446;7.904;2024-01-15T10:26:40;96950.94;;;1.53;100.00
10474;BME280;5284;50.446;7.904;2024-01-15T10:31:44;96946.84;;;1.39;100.00
10474;BME280;5284;50.446;7.904;2024-01-15T10:36:49;96943.31;;;1.50;100.00
10474;BME280;5284;50.446;7.904;2024-01-15T10:41:57;96946.69;;;1.29;100.00
10474;BME280;5284;50.446;7.904;2024-01-15T10:47:01;96945.31;;;1.47;100.00
10474;BME280;5284;50.446;7.904;2024-01-15T10:52:05;96942.00;;;1.22;100.00
10474;BME280;5284;50.446;7.904;2024-01-15T10:57:09;96930.47;;;1.35;100.00
10474;BME280;5284;50.446;7.904;2024-01-15T11:02:14;96923.69;;;1.09;100.00
10474;BME280;5284;50.446;7.904;2024-01-15T11:07:20;96929.50;;;1.02;100.00
10474;BME280;5284;50.446;7.904;2024-01-15T11:12:28;96919.84;;;1.02;100.00
10474;BME280;5284;50.446;7.904;2024-01-15T11:17:59;96923.59;;;0.87;100.00
10474;BME280;5284;50.446;7.904;2024-01-15T11:23:04;96926.38;;;0.97;100.00
10474;BME280;5284;50.446;7.904;2024-01-15T11:28:07;96925.09;;;0.79;100.00
10474;BME280;5284;50.446;7.904;2024-01-15T11:33:32;96943.28;;;0.69;100.00
10474;BME280;5284;50.446;7.904;2024-01-15T11:38:37;96937.31;;;0.67;100.00
10474;BME280;5284;50.446;7.904;2024-01-15T11:43:40;96942.31;;;0.70;100.00
10474;BME280;5284;50.446;7.904;2024-01-15T11:48:44;96929.28;;;1.05;100.00
10474;BME280;5284;50.446;7.904;2024-01-15T11:53:52;96942.09;;;0.97;100.00
10474;BME280;5284;50.446;7.904;2024-01-15T11:58:59;96952.06;;;1.04;100.00
10474;BME280;5284;50.446;7.904;2024-01-15T12:04:08;96963.59;;;0.78;100.00
10474;BME280;5284;50.446;7.904;2024-01-15T12:09:12;96960.88;;;0.80;100.00
10474;BME280;5284;50.446;7.904;2024-01-15T12:14:15;96966.41;;;0.88;100.00
10474;BME280;5284;50.446;7.904;2024-01-15T12:19:21;96974.59;;;0.83;100.00
10474;BME280;5284;50.446;7.904;2024-01-15T12:24:24;96977.63;;;0.90;100.00
10474;BME280;5284;50.446;7.904;2024-01-15T12:29:28;96972.16;;;0.93;100.00
10474;BME280;5284;50.446;7.904;2024-01-15T12:34:33;96977.53;;;0.91;100.00
10474;BME280;5284;50.446;7.904;2024-01-15T12:39:38;96982.31;;;0.97;100.00
10474;BME280;5284;50.446;7.904;2024-01-15T12:44:42;96979.56;;;0.99;100.00
10474;BME280;5284;50.446;7.904;2024-01-15T12:49:48;96990.06;;;0.99;100.00
10474;BME280;5284;50.446;7.904;2024-01-15T12:55:09;96991.53;;;1.03;100.00
10474;BME280;5284;50.446;7.904;2024-01-15T13:00:14;96991.47;;;0.92;100.00
10474;BME280;5284;50.446;7.904;2024-01-15T13:05:19;97002.75;;;1.05;100.00
10474;BME280;5284;50.446;7.904;2024-01-15T13:10:24;96991.16;;;1.20;100.00
10474;BME280;5284;50.446;7.904;2024-01-15T13:15:29;96989.47;;;1.19;100.00
10474;BME280;5284;50.446;7.904;2024-01-15T13:20:33;96998.38;;;0.93;100.00
10474;BME280;5284;50.446;7.904;2024-01-15T13:25:36;96995.69;;;0.82;100.00
10474;BME280;5284;50.446;7.904;2024-01-15T13:30:40;96994.44;;;0.87;100.00
10474;BME280;5284;50.446;7.904;2024-01-15T13:35:45;97002.63;;;0.83;100.00
10474;BME280;5284;50.446;7.904;2024-01-15T13:40:51;97000.66;;;0.74;100.00
10474;BME280;5284;50.446;7.904;2024-01-15T13:45:56;97015.41;;;0.87;100.00
10474;BME280;5284;50.446;7.904;2024-01-15T13:51:05;97009.59;;;0.95;100.00
10474;BME280;5284;50.446;7.904;2024-01-15T13:56:09;97000.78;;;0.96;100.00
10474;BME280;5284;50.446;7.904;2024-01-15T14:01:13;97013.31;;;0.92;100.00
10474;BME280;5284;50.446;7.904;2024-01-15T14:06:17;97009.44;;;0.85;100.00
10474;BME280;5284;50.446;7.904;2024-01-15T14:11:21;97014.47;;;0.88;100.00
10474;BME280;5284;50.446;7.904;2024-01-15T14:16:24;97018.22;;;0.84;100.00
10474;BME280;5284;50.446;7.904;2024-01-15T14:21:29;97014.78;;;0.84;100.00
10474;BME280;5284;50.446;7.904;2024-01-15T14:26:35;97026.63;;;0.89;100.00
10474;BME280;5284;50.446;7.904;2024-01-15T14:31:38;97026.28;;;0.94;100.00
10474;BME280;5284;50.446;7.904;2024-01-15T14:36:44;97032.94;;;0.87;100.00
10474;BME280;5284;50.446;7.904;2024-01-15T14:41:48;97035.47;;;0.88;100.00
10474;BME280;5284;50.446;7.904;2024-01-15T14:46:53;97042.91;;;0.82;100.00
10474;BME280;5284;50.446;7.904;2024-01-15T14:51:58;97053.13;;;0.74;100.00
10474;BME280;5284;50.446;7.904;2024-01-15T14:57:02;97055.72;;;0.74;100.00
10474;BME280;5284;50.446;7.904;2024-01-15T15:02:05;97059.09;;;0.63;100.00
10474;BME280;5284;50.446;7.904;2024-01-15T15:07:13;97056.19;;;0.55;100.00
10474;BME280;5284;50.446;7.904;2024-01-15T15:12:17;97061.31;;;0.44;100.00
10474;BME280;5284;50.446;7.904;2024-01-15T15:17:20;97066.66;;;0.43;100.00
10474;BME280;5284;50.446;7.904;2024-01-15T15:22:24;97081.88;;;0.38;100.00
10474;BME280;5284;50.446;7.904;2024-01-15T15:27:28;97088.25;;;0.34;100.00
10474;BME280;5284;50.446;7.904;2024-01-15T15:32:31;97093.09;;;0.27;100.00
10474;BME280;5284;50.446;7.904;2024-01-15T15:37:36;97092.66;;;0.21;100.00
10474;BME280;5284;50.446;7.904;2024-01-15T15:42:39;97096.00;;;0.23;100.00
10474;BME280;5284;50.446;7.904;2024-01-15T15:47:42;97093.16;;;0.13;100.00
10474;BME280;5284;50.446;7.904;2024-01-15T15:52:46;97116.31;;;0.07;100.00
10474;BME280;5284;50.446;7.904;2024-01-15T15:57:49;97119.78;;;0.07;100.00
10474;BME280;5284;50.446;7.904;2024-01-15T16:02:52;97135.09;;;0.01;100.00
10474;BME280;5284;50.446;7.904;2024-01-15T16:07:57;97142.28;;;-0.03;100.00
10474;BME280;5284;50.446;7.904;2024-01-15T16:13:01;97151.91;;;-0.03;100.00
10474;BME280;5284;50.446;7.904;2024-01-15T16:18:04;97165.13;;;-0.04;100.00
10474;BME280;5284;50.446;7.904;2024-01-15T16:23:31;97170.38;;;-0.04;100.00
10474;BME280;5284;50.446;7.904;2024-01-15T16:28:54;97177.06;;;-0.01;100.00
10474;BME280;5284;50.446;7.904;2024-01-15T16:34:01;97176.34;;;-0.03;100.00
10474;BME280;5284;50.446;7.904;2024-01-15T16:39:09;97191.84;;;0.00;100.00
10474;BME280;5284;50.446;7.904;2024-01-15T16:44:13;97198.91;;;0.00;100.00
10474;BME280;5284;50.446;7.904;2024-01-15T16:49:16;97209.47;;;-0.02;100.00
10474;BME280;5284;50.446;7.904;2024-01-15T16:54:21;97225.16;;;-0.02;100.00
10474;BME280;5284;50.446;7.904;2024-01-15T16:59:25;97225.81;;;0.02;100.00
10474;BME280;5284;50.446;7.904;2024-01-15T17:04:28;97228.44;;;0.02;100.00
10474;BME280;5284;50.446;7.904;2024-01-15T17:09:33;97240.59;;;0.03;100.00
10474;BME280;5284;50.446;7.904;2024-01-15T17:14:36;97238.72;;;0.05;100.00
10474;BME280;5284;50.446;7.904;2024-01-15T17:19:42;97252.75;;;0.04;100.00
10474;BME280;5284;50.446;7.904;2024-01-15T17:24:51;97260.72;;;0.02;100.00
10474;BME280;5284;50.446;7.904;2024-01-15T17:29:57;97267.09;;;-0.02;100.00
10474;BME280;5284;50.446;7.904;2024-01-15T17:35:01;97272.72;;;-0.07;100.00
10474;BME280;5284;50.446;7.904;2024-01-15T17:40:08;97292.81;;;-0.08;100.00
10474;BME280;5284;50.446;7.904;2024-01-15T17:45:11;97283.81;;;-0.04;100.00
10474;BME280;5284;50.446;7.904;2024-01-15T17:50:14;97294.88;;;0.01;100.00
10474;BME280;5284;50.446;7.904;2024-01-15T17:55:19;97290.66;;;-0.02;100.00
10474;BME280;5284;50.446;7.904;2024-01-15T18:00:24;97304.69;;;-0.03;100.00
10474;BME280;5284;50.446;7.904;2024-01-15T18:05:27;97311.63;;;-0.02;100.00
10474;BME280;5284;50.446;7.904;2024-01-15T18:10:32;97310.03;;;-0.04;100.00
10474;BME280;5284;50.446;7.904;2024-01-15T18:15:37;97320.63;;;-0.05;100.00
10474;BME280;5284;50.446;7.904;2024-01-15T18:20:40;97344.06;;;-0.04;100.00
10474;BME280;5284;50.446;7.904;2024-01-15T18:25:45;97338.94;;;-0.05;100.00
10474;BME280;5284;50.446;7.904;2024-01-15T18:30:48;97350.38;;;-0.06;100.00
10474;BME280;5284;50.446;7.904;2024-01-15T18:35:52;97358.97;;;-0.04;100.00
10474;BME280;5284;50.446;7.904;2024-01-15T18:40:59;97374.56;;;-0.03;100.00
10474;BME280;5284;50.446;7.904;2024-01-15T18:46:06;97378.31;;;-0.07;100.00
10474;BME280;5284;50.446;7.904;2024-01-15T18:51:19;97373.28;;;-0.10;100.00
10474;BME280;5284;50.446;7.904;2024-01-15T18:56:24;97384.59;;;-0.09;100.00
10474;BME280;5284;50.446;7.904;2024-01-15T19:01:30;97375.44;;;-0.16;100.00
10474;BME280;5284;50.446;7.904;2024-01-15T19:06:34;97377.28;;;-0.18;100.00
10474;BME280;5284;50.446;7.904;2024-01-15T19:11:39;97392.44;;;-0.23;100.00
10474;BME280;5284;50.446;7.904;2024-01-15T19:16:43;97390.13;;;-0.28;100.00
10474;BME280;5284;50.446;7.904;2024-01-15T19:21:46;97399.19;;;-0.33;100.00
10474;BME280;5284;50.446;7.904;2024-01-15T19:26:54;97396.84;;;-0.38;100.00
10474;BME280;5284;50.446;7.904;2024-01-15T19:31:57;97390.97;;;-0.41;100.00
10474;BME280;5284;50.446;7.904;2024-01-15T19:37:02;97397.03;;;-0.41;100.00
10474;BME280;5284;50.446;7.904;2024-01-15T19:42:07;97394.31;;;-0.39;100.00
10474;BME280;5284;50.446;7.904;2024-01-15T19:47:10;97398.72;;;-0.40;100.00
10474;BME280;5284;50.446;7.904;2024-01-15T19:52:16;97389.53;;;-0.47;100.00
10474;BME280;5284;50.446;7.904;2024-01-15T19:57:49;97401.69;;;-0.46;100.00
10474;BME280;5284;50.446;7.904;2024-01-15T20:03:03;97409.19;;;-0.40;100.00
10474;BME280;5284;50.446;7.904;2024-01-15T20:08:18;97420.31;;;-0.36;100.00
10474;BME280;5284;50.446;7.904;2024-01-15T20:13:26;97437.16;;;-0.40;100.00
10474;BME280;5284;50.446;7.904;2024-01-15T20:18:36;97424.31;;;-0.45;100.00
10474;BME280;5284;50.446;7.904;2024-01-15T20:23:41;97431.25;;;-0.44;100.00
10474;BME280;5284;50.446;7.904;2024-01-15T20:29:00;97434.59;;;-0.42;100.00
10474;BME280;5284;50.446;7.904;2024-01-15T20:34:03;97447.31;;;-0.36;100.00
10474;BME280;5284;50.446;7.904;2024-01-15T20:39:06;97454.00;;;-0.30;100.00
10474;BME280;5284;50.446;7.904;2024-01-15T20:44:11;97464.94;;;-0.24;100.00
10474;BME280;5284;50.446;7.904;2024-01-15T20:49:14;97471.56;;;-0.18;100.00
10474;BME280;5284;50.446;7.904;2024-01-15T20:54:18;97473.09;;;-0.14;100.00
10474;BME280;5284;50.446;7.904;2024-01-15T20:59:23;97478.22;;;-0.13;100.00
10474;BME280;5284;50.446;7.904;2024-01-15T21:04:27;97485.91;;;-0.10;100.00
10474;BME280;5284;50.446;7.904;2024-01-15T21:09:29;97495.44;;;-0.09;100.00
10474;BME280;5284;50.446;7.904;2024-01-15T21:14:34;97498.06;;;-0.09;100.00
10474;BME280;5284;50.446;7.904;2024-01-15T21:19:39;97494.69;;;-0.11;100.00
10474;BME280;5284;50.446;7.904;2024-01-15T21:24:41;97492.81;;;-0.09;100.00
10474;BME280;5284;50.446;7.904;2024-01-15T21:29:46;97492.94;;;-0.10;100.00
10474;BME280;5284;50.446;7.904;2024-01-15T21:34:49;97507.72;;;-0.09;100.00
10474;BME280;5284;50.446;7.904;2024-01-15T21:39:52;97497.25;;;-0.09;100.00
10474;BME280;5284;50.446;7.904;2024-01-15T21:44:57;97506.88;;;-0.10;100.00
10474;BME280;5284;50.446;7.904;2024-01-15T21:50:00;97506.22;;;-0.13;100.00
10474;BME280;5284;50.446;7.904;2024-01-15T21:55:04;97512.28;;;-0.13;100.00
10474;BME280;5284;50.446;7.904;2024-01-15T22:00:10;97516.97;;;-0.18;100.00
10474;BME280;5284;50.446;7.904;2024-01-15T22:05:14;97523.97;;;-0.18;100.00
10474;BME280;5284;50.446;7.904;2024-01-15T22:10:18;97521.44;;;-0.20;100.00
10474;BME280;5284;50.446;7.904;2024-01-15T22:15:22;97525.06;;;-0.22;100.00
10474;BME280;5284;50.446;7.904;2024-01-15T22:20:28;97542.56;;;-0.23;100.00
10474;BME280;5284;50.446;7.904;2024-01-15T22:25:31;97551.72;;;-0.30;100.00
10474;BME280;5284;50.446;7.904;2024-01-15T22:30:37;97559.47;;;-0.28;100.00
10474;BME280;5284;50.446;7.904;2024-01-15T22:35:39;97565.00;;;-0.33;100.00
10474;BME280;5284;50.446;7.904;2024-01-15T22:40:44;97562.53;;;-0.36;100.00
10474;BME280;5284;50.446;7.904;2024-01-15T22:45:48;97565.75;;;-0.31;100.00
10474;BME280;5284;50.446;7.904;2024-01-15T22:50:52;97574.44;;;-0.30;100.00
10474;BME280;5284;50.446;7.904;2024-01-15T22:55:55;97579.78;;;-0.32;100.00
10474;BME280;5284;50.446;7.904;2024-01-15T23:01:00;97571.00;;;-0.31;100.00
10474;BME280;5284;50.446;7.904;2024-01-15T23:06:04;97584.91;;;-0.30;100.00
10474;BME280;5284;50.446;7.904;2024-01-15T23:11:08;97581.19;;;-0.26;100.00
10474;BME280;5284;50.446;7.904;2024-01-15T23:16:13;97592.53;;;-0.26;100.00
10474;BME280;5284;50.446;7.904;2024-01-15T23:21:16;97593.44;;;-0.27;100.00
10474;BME280;5284;50.446;7.904;2024-01-15T23:26:19;97591.84;;;-0.29;100.00
10474;BME280;5284;50.446;7.904;2024-01-15T23:31:23;97592.13;;;-0.34;100.00
10474;BME280;5284;50.446;7.904;2024-01-15T23:36:26;97602.66;;;-0.35;100.00
10474;BME280;5284;50.446;7.904;2024-01-15T23:41:29;97601.72;;;-0.34;100.00
10474;BME280;5284;50.446;7.904;2024-01-15T23:46:34;97605.22;;;-0.34;100.00
10474;BME280;5284;50.446;7.904;2024-01-15T23:51:37;97608.16;;;-0.40;100.00
10474;BME280;5284;50.446;7.904;2024-01-15T23:56:40;97612.56;;;-0.40;100.00
